createdAt,value
2019-05-03T00:02:24.009Z,98720.00
2019-05-03T00:04:55.377Z,98726.00
2019-05-03T00:07:24.798Z,98720.00
2019-05-03T00:09:54.196Z,98724.00
2019-05-03T00:12:23.718Z,98734.00
2019-05-03T00:14:54.998Z,98732.00
2019-05-03T00:17:24.441Z,98732.00
2019-05-03T00:19:53.904Z,98733.00
2019-05-03T00:22:23.352Z,98742.00
2019-05-03T00:25:05.349Z,98737.00
2019-05-03T00:27:23.958Z,98734.00
2019-05-03T00:29:53.349Z,98737.00
2019-05-03T00:32:24.446Z,98741.00
2019-05-03T00:34:58.270Z,98743.00
2019-05-03T00:37:29.354Z,98746.00
2019-05-03T00:40:06.786Z,98750.00
2019-05-03T00:42:36.351Z,98750.00
2019-05-03T00:45:08.315Z,98759.00
2019-05-03T00:47:37.711Z,98755.00
2019-05-03T00:50:12.044Z,98765.00
2019-05-03T00:52:42.370Z,98766.00
2019-05-03T00:55:18.483Z,98763.00
2019-05-03T00:57:42.757Z,98765.00
2019-05-03T01:00:12.405Z,98770.00
2019-05-03T01:02:42.414Z,98763.00
2019-05-03T01:05:12.090Z,98772.00
2019-05-03T01:07:42.245Z,98775.00
2019-05-03T01:10:12.953Z,98770.00
2019-05-03T01:12:42.377Z,98776.00
2019-05-03T01:15:13.872Z,98763.00
2019-05-03T01:17:43.352Z,98769.00
2019-05-03T01:20:12.873Z,98782.00
2019-05-03T01:22:42.549Z,98784.00
2019-05-03T01:25:12.115Z,98787.00
2019-05-03T01:27:42.752Z,98786.00
2019-05-03T01:30:12.699Z,98778.00
2019-05-03T01:32:41.904Z,98783.00
2019-05-03T01:35:12.271Z,98780.00
2019-05-03T01:37:42.467Z,98782.00
2019-05-03T01:40:12.559Z,98776.00
2019-05-03T01:42:42.635Z,98779.00
2019-05-03T01:45:12.353Z,98775.00
2019-05-03T01:47:52.603Z,98778.00
2019-05-03T01:50:23.513Z,98779.00
2019-05-03T01:53:06.534Z,98775.00
2019-05-03T01:55:53.680Z,98784.00
2019-05-03T01:58:24.382Z,98792.00
2019-05-03T02:01:12.637Z,98796.00
2019-05-03T02:03:43.970Z,98793.00
2019-05-03T02:06:13.392Z,98800.00
2019-05-03T02:08:42.807Z,98798.00
2019-05-03T02:11:12.237Z,98809.00
2019-05-03T02:13:42.749Z,98798.00
2019-05-03T02:16:12.236Z,98802.00
2019-05-03T02:18:42.431Z,98803.00
2019-05-03T02:21:12.221Z,98807.00
2019-05-03T02:23:42.591Z,98816.00
2019-05-03T02:26:11.885Z,98811.00
2019-05-03T02:28:42.212Z,98808.00
2019-05-03T02:31:13.695Z,98806.00
2019-05-03T02:33:43.421Z,98805.00
2019-05-03T02:36:13.836Z,98814.00
2019-05-03T02:38:43.421Z,98815.00
2019-05-03T02:41:13.610Z,98810.00
2019-05-03T02:43:45.402Z,98819.00
2019-05-03T02:46:17.082Z,98815.00
2019-05-03T02:49:02.766Z,98818.00
2019-05-03T02:51:32.210Z,98819.00
2019-05-03T02:54:01.378Z,98826.00
2019-05-03T02:56:30.731Z,98824.00
2019-05-03T02:59:00.226Z,98827.00
2019-05-03T03:01:30.379Z,98832.00
2019-05-03T03:04:00.079Z,98830.00
2019-05-03T03:06:30.736Z,98822.00
2019-05-03T03:09:00.317Z,98825.00
2019-05-03T03:11:31.031Z,98834.00
2019-05-03T03:14:00.284Z,98824.00
2019-05-03T03:16:31.501Z,98818.00
2019-05-03T03:19:06.577Z,98821.00
2019-05-03T03:21:39.335Z,98818.00
2019-05-03T03:24:14.002Z,98812.00
2019-05-03T03:26:47.046Z,98824.00
2019-05-03T03:29:17.389Z,98821.00
2019-05-03T03:31:49.666Z,98827.00
2019-05-03T03:34:21.479Z,98819.00
2019-05-03T03:37:00.836Z,98823.00
2019-05-03T03:39:25.712Z,98826.00
2019-05-03T03:41:56.128Z,98830.00
2019-05-03T03:44:26.352Z,98833.00
2019-05-03T03:46:57.052Z,98848.00
2019-05-03T03:49:28.993Z,98850.00
2019-05-03T03:51:58.257Z,98853.00
2019-05-03T03:54:29.974Z,98848.00
2019-05-03T03:57:03.850Z,98849.00
2019-05-03T03:59:30.081Z,98860.00
2019-05-03T04:01:59.137Z,98852.00
2019-05-03T04:04:28.331Z,98862.00
2019-05-03T04:07:01.225Z,98873.00
2019-05-03T04:09:28.604Z,98870.00
2019-05-03T04:11:58.018Z,98871.00
2019-05-03T04:14:29.068Z,98865.00
2019-05-03T04:17:00.319Z,98876.00
2019-05-03T04:19:31.130Z,98884.00
2019-05-03T04:22:00.271Z,98883.00
2019-05-03T04:24:31.029Z,98897.00
2019-05-03T04:27:18.540Z,98911.00
2019-05-03T04:29:38.166Z,98920.00
2019-05-03T04:32:09.775Z,98925.00
2019-05-03T04:34:38.884Z,98932.00
2019-05-03T04:37:07.981Z,98933.00
2019-05-03T04:39:37.306Z,98933.00
2019-05-03T04:42:07.149Z,98934.00
2019-05-03T04:44:36.569Z,98938.00
2019-05-03T04:47:07.092Z,98940.00
2019-05-03T04:49:36.543Z,98939.00
2019-05-03T04:52:06.395Z,98944.00
2019-05-03T04:54:37.209Z,98949.00
2019-05-03T04:57:06.817Z,98943.00
2019-05-03T04:59:36.270Z,98958.00
2019-05-03T05:02:06.097Z,98966.00
2019-05-03T05:04:35.831Z,98961.00
2019-05-03T05:07:06.244Z,98963.00
2019-05-03T05:09:35.772Z,98961.00
2019-05-03T05:12:05.657Z,98970.00
2019-05-03T05:14:35.445Z,98972.00
2019-05-03T05:17:06.186Z,98976.00
2019-05-03T05:19:49.148Z,98975.00
2019-05-03T05:22:35.064Z,98979.00
2019-05-03T05:25:07.608Z,98985.00
2019-05-03T05:27:48.697Z,98987.00
2019-05-03T05:30:14.960Z,98999.00
2019-05-03T05:32:45.377Z,98998.00
2019-05-03T05:35:14.520Z,98995.00
2019-05-03T05:37:46.649Z,99003.00
2019-05-03T05:40:18.103Z,99003.00
2019-05-03T05:42:47.169Z,99010.00
2019-05-03T05:45:16.274Z,99013.00
2019-05-03T05:47:49.952Z,99010.00
2019-05-03T05:50:25.350Z,99005.00
2019-05-03T05:52:55.209Z,99009.00
2019-05-03T05:55:28.993Z,99006.00
2019-05-03T05:58:11.592Z,99018.00
2019-05-03T06:00:51.517Z,99014.00
2019-05-03T06:03:20.867Z,99020.00
2019-05-03T06:05:50.161Z,99012.00
2019-05-03T06:08:29.952Z,99011.00
2019-05-03T06:11:04.521Z,99026.00
2019-05-03T06:13:47.153Z,99025.00
2019-05-03T06:16:36.536Z,99031.00
2019-05-03T06:19:16.341Z,99041.00
2019-05-03T06:21:49.751Z,99037.00
2019-05-03T06:24:20.485Z,99039.00
2019-05-03T06:27:00.121Z,99043.00
2019-05-03T06:29:29.477Z,99049.00
2019-05-03T06:32:06.416Z,99044.00
2019-05-03T06:34:35.841Z,99042.00
2019-05-03T06:37:09.953Z,99036.00
2019-05-03T06:39:39.024Z,99050.00
2019-05-03T06:42:10.011Z,99051.00
2019-05-03T06:44:38.899Z,99048.00
2019-05-03T06:47:10.427Z,99051.00
2019-05-03T06:49:43.728Z,99063.00
2019-05-03T06:52:09.901Z,99063.00
2019-05-03T06:54:38.976Z,99064.00
2019-05-03T06:57:09.995Z,99058.00
2019-05-03T06:59:41.223Z,99054.00
2019-05-03T07:02:28.565Z,99062.00
2019-05-03T07:04:59.403Z,99067.00
2019-05-03T07:07:36.009Z,99060.00
2019-05-03T07:10:09.211Z,99060.00
2019-05-03T07:12:56.373Z,99065.00
2019-05-03T07:15:25.991Z,99072.00
2019-05-03T07:17:55.749Z,99067.00
2019-05-03T07:20:25.668Z,99071.00
2019-05-03T07:22:56.079Z,99065.00
2019-05-03T07:25:25.811Z,99063.00
2019-05-03T07:27:55.661Z,99078.00
2019-05-03T07:30:25.222Z,99075.00
2019-05-03T07:32:58.636Z,99073.00
2019-05-03T07:35:27.741Z,99079.00
2019-05-03T07:37:56.866Z,99086.00
2019-05-03T07:40:26.222Z,99091.00
2019-05-03T07:42:55.682Z,99092.00
2019-05-03T07:45:25.776Z,99089.00
2019-05-03T07:47:55.841Z,99097.00
2019-05-03T07:50:25.863Z,99096.00
2019-05-03T07:52:55.900Z,99094.00
2019-05-03T07:55:42.754Z,99096.00
2019-05-03T07:58:15.060Z,99095.00
2019-05-03T08:00:44.700Z,99099.00
2019-05-03T08:03:15.482Z,99102.00
2019-05-03T08:05:45.565Z,99101.00
2019-05-03T08:08:15.162Z,99098.00
2019-05-03T08:10:44.933Z,99095.00
2019-05-03T08:13:15.077Z,99103.00
2019-05-03T08:15:45.123Z,99095.00
2019-05-03T08:18:15.324Z,99103.00
2019-05-03T08:20:45.315Z,99101.00
2019-05-03T08:23:26.299Z,99107.00
2019-05-03T08:25:45.593Z,99102.00
2019-05-03T08:28:14.832Z,99100.00
2019-05-03T08:31:01.451Z,99103.00
2019-05-03T08:33:48.217Z,99110.00
2019-05-03T08:36:17.663Z,99103.00
2019-05-03T08:38:46.748Z,99103.00
2019-05-03T08:41:17.718Z,99103.00
2019-05-03T08:43:46.806Z,99100.00
2019-05-03T08:46:16.153Z,99102.00
2019-05-03T08:48:45.678Z,99109.00
2019-05-03T08:51:14.956Z,99097.00
2019-05-03T08:53:45.850Z,99101.00
2019-05-03T08:56:15.710Z,99092.00
2019-05-03T08:58:45.180Z,99110.00
2019-05-03T09:01:14.959Z,99096.00
2019-05-03T09:03:45.728Z,99098.00
2019-05-03T09:06:15.596Z,99100.00
2019-05-03T09:08:45.759Z,99094.00
2019-05-03T09:11:16.738Z,99105.00
2019-05-03T09:13:50.505Z,99103.00
2019-05-03T09:16:19.674Z,99106.00
2019-05-03T09:18:49.054Z,99097.00
2019-05-03T09:21:18.472Z,99106.00
2019-05-03T09:23:47.661Z,99106.00
2019-05-03T09:26:16.799Z,99101.00
2019-05-03T09:28:45.942Z,99105.00
2019-05-03T09:31:15.658Z,99106.00
2019-05-03T09:33:45.392Z,99106.00
2019-05-03T09:36:15.102Z,99109.00
2019-05-03T09:38:45.810Z,99104.00
2019-05-03T09:41:15.677Z,99094.00
2019-05-03T09:43:45.237Z,99083.00
2019-05-03T09:46:14.852Z,99098.00
2019-05-03T09:48:45.394Z,99100.00
2019-05-03T09:51:14.991Z,99095.00
2019-05-03T09:53:48.956Z,99091.00
2019-05-03T09:56:19.833Z,99103.00
2019-05-03T09:58:48.981Z,99100.00
2019-05-03T10:01:18.438Z,99104.00
2019-05-03T10:03:47.580Z,99090.00
2019-05-03T10:06:17.616Z,99095.00
2019-05-03T10:08:47.237Z,99091.00
2019-05-03T10:11:16.697Z,99094.00
2019-05-03T10:13:48.371Z,99087.00
2019-05-03T10:16:17.437Z,99085.00
2019-05-03T10:18:46.860Z,99102.00
2019-05-03T10:21:16.112Z,99098.00
2019-05-03T10:23:45.593Z,99098.00
2019-05-03T10:26:15.277Z,99096.00
2019-05-03T10:28:44.719Z,99091.00
2019-05-03T10:31:14.711Z,99096.00
2019-05-03T10:33:45.842Z,99089.00
2019-05-03T10:36:15.518Z,99091.00
2019-05-03T10:38:46.201Z,99101.00
2019-05-03T10:41:15.450Z,99100.00
2019-05-03T10:43:45.291Z,99099.00
2019-05-03T10:46:15.972Z,99093.00
2019-05-03T10:48:45.786Z,99092.00
2019-05-03T10:51:15.867Z,99101.00
2019-05-03T10:53:46.854Z,99096.00
2019-05-03T10:56:22.790Z,99089.00
2019-05-03T10:59:06.314Z,99088.00
2019-05-03T11:01:51.941Z,99083.00
2019-05-03T11:04:21.352Z,99078.00
2019-05-03T11:06:50.766Z,99082.00
2019-05-03T11:09:20.193Z,99078.00
2019-05-03T11:11:49.423Z,99089.00
2019-05-03T11:14:18.818Z,99091.00
2019-05-03T11:16:48.242Z,99079.00
2019-05-03T11:19:17.434Z,99080.00
2019-05-03T11:21:46.858Z,99085.00
2019-05-03T11:24:16.103Z,99086.00
2019-05-03T11:26:47.162Z,99083.00
2019-05-03T11:29:16.958Z,99071.00
2019-05-03T11:31:47.969Z,99086.00
2019-05-03T11:34:35.470Z,99083.00
2019-05-03T11:37:21.287Z,99077.00
2019-05-03T11:39:51.869Z,99083.00
2019-05-03T11:42:21.380Z,99090.00
2019-05-03T11:44:50.809Z,99073.00
2019-05-03T11:47:19.971Z,99080.00
2019-05-03T11:49:49.131Z,99071.00
2019-05-03T11:52:18.441Z,99088.00
2019-05-03T11:54:47.613Z,99089.00
2019-05-03T11:57:26.172Z,99087.00
2019-05-03T11:59:55.269Z,99086.00
2019-05-03T12:02:29.164Z,99080.00
2019-05-03T12:05:06.266Z,99079.00
2019-05-03T12:07:39.586Z,99071.00
2019-05-03T12:10:17.250Z,99084.00
2019-05-03T12:12:56.032Z,99074.00
2019-05-03T12:15:25.958Z,99069.00
2019-05-03T12:17:59.063Z,99089.00
2019-05-03T12:20:29.276Z,99088.00
2019-05-03T12:22:58.920Z,99083.00
2019-05-03T12:25:29.307Z,99089.00
2019-05-03T12:27:59.039Z,99079.00
2019-05-03T12:30:28.236Z,99084.00
2019-05-03T12:32:57.417Z,99085.00
2019-05-03T12:35:26.581Z,99080.00
2019-05-03T12:37:55.789Z,99086.00
2019-05-03T12:40:25.596Z,99088.00
2019-05-03T12:42:55.449Z,99084.00
2019-05-03T12:45:25.145Z,99083.00
2019-05-03T12:47:55.966Z,99082.00
2019-05-03T12:50:25.329Z,99085.00
2019-05-03T12:52:55.482Z,99089.00
2019-05-03T12:55:25.205Z,99084.00
2019-05-03T12:57:55.555Z,99085.00
2019-05-03T13:00:32.697Z,99068.00
2019-05-03T13:03:06.788Z,99075.00
2019-05-03T13:05:36.085Z,99085.00
2019-05-03T13:08:29.627Z,99076.00
2019-05-03T13:10:58.804Z,99077.00
2019-05-03T13:13:28.286Z,99072.00
2019-05-03T13:15:57.724Z,99074.00
2019-05-03T13:18:26.938Z,99065.00
2019-05-03T13:20:56.143Z,99067.00
2019-05-03T13:23:25.610Z,99062.00
2019-05-03T13:25:54.777Z,99060.00
2019-05-03T13:28:25.467Z,99059.00
2019-05-03T13:30:54.841Z,99050.00
2019-05-03T13:33:24.260Z,99063.00
2019-05-03T13:35:55.178Z,99055.00
2019-05-03T13:38:25.072Z,99058.00
2019-05-03T13:40:54.568Z,99059.00
2019-05-03T13:43:23.715Z,99055.00
2019-05-03T13:45:55.508Z,99054.00
2019-05-03T13:48:26.294Z,99057.00
2019-05-03T13:50:55.441Z,99053.00
2019-05-03T13:53:25.422Z,99052.00
2019-05-03T13:55:55.244Z,99037.00
2019-05-03T13:58:26.311Z,99058.00
2019-05-03T14:00:55.302Z,99051.00
2019-05-03T14:03:24.704Z,99036.00
2019-05-03T14:05:55.197Z,99055.00
2019-05-03T14:08:25.394Z,99043.00
2019-05-03T14:10:55.663Z,99039.00
2019-05-03T14:13:25.147Z,99036.00
2019-05-03T14:15:54.877Z,99033.00
2019-05-03T14:18:25.622Z,99043.00
2019-05-03T14:21:05.008Z,99050.00
2019-05-03T14:23:35.870Z,99042.00
2019-05-03T14:26:05.588Z,99049.00
2019-05-03T14:28:35.011Z,99044.00
2019-05-03T14:31:05.236Z,99033.00
2019-05-03T14:33:35.413Z,99031.00
2019-05-03T14:36:05.299Z,99040.00
2019-05-03T14:38:34.786Z,99027.00
2019-05-03T14:41:05.517Z,99029.00
2019-05-03T14:43:35.501Z,99027.00
2019-05-03T14:46:05.650Z,99032.00
2019-05-03T14:48:35.211Z,99015.00
2019-05-03T14:51:05.511Z,99029.00
2019-05-03T14:53:34.983Z,99025.00
2019-05-03T14:56:11.444Z,99030.00
2019-05-03T14:58:58.246Z,99030.00
2019-05-03T15:01:38.286Z,99021.00
2019-05-03T15:04:07.754Z,99020.00
2019-05-03T15:06:37.140Z,99021.00
2019-05-03T15:09:07.974Z,99016.00
2019-05-03T15:11:37.369Z,99014.00
2019-05-03T15:14:06.536Z,99014.00
2019-05-03T15:16:36.100Z,99014.00
2019-05-03T15:19:05.570Z,99011.00
2019-05-03T15:21:34.974Z,99005.00
2019-05-03T15:24:05.399Z,99005.00
2019-05-03T15:26:35.641Z,99008.00
2019-05-03T15:29:05.145Z,99006.00
2019-05-03T15:31:35.360Z,99010.00
2019-05-03T15:34:05.057Z,99008.00
2019-05-03T15:36:34.480Z,98999.00
2019-05-03T15:39:04.652Z,99001.00
2019-05-03T15:41:35.667Z,98997.00
2019-05-03T15:44:20.057Z,99002.00
2019-05-03T15:46:51.083Z,99003.00
2019-05-03T15:49:20.517Z,99010.00
2019-05-03T15:51:50.041Z,99011.00
2019-05-03T15:54:19.431Z,99005.00
2019-05-03T15:56:48.584Z,99008.00
2019-05-03T15:59:18.534Z,99011.00
2019-05-03T16:01:47.936Z,99001.00
2019-05-03T16:04:17.112Z,99007.00
2019-05-03T16:06:46.494Z,99001.00
2019-05-03T16:09:15.931Z,98997.00
2019-05-03T16:11:47.929Z,99004.00
2019-05-03T16:14:17.346Z,99006.00
2019-05-03T16:16:46.499Z,99003.00
2019-05-03T16:19:15.900Z,98998.00
2019-05-03T16:21:45.991Z,99001.00
2019-05-03T16:24:15.599Z,98992.00
2019-05-03T16:27:02.327Z,98996.00
2019-05-03T16:29:31.764Z,98999.00
2019-05-03T16:32:01.153Z,99002.00
2019-05-03T16:34:30.604Z,98996.00
2019-05-03T16:37:00.020Z,98994.00
2019-05-03T16:39:29.227Z,98994.00
2019-05-03T16:41:58.377Z,98989.00
2019-05-03T16:44:27.536Z,98991.00
2019-05-03T16:46:56.945Z,98986.00
2019-05-03T16:49:26.342Z,98991.00
2019-05-03T16:51:55.568Z,98988.00
2019-05-03T16:54:25.464Z,98993.00
2019-05-03T16:56:54.989Z,98994.00
2019-05-03T16:59:24.723Z,98993.00
2019-05-03T17:01:55.167Z,98990.00
2019-05-03T17:04:26.749Z,98986.00
2019-05-03T17:07:15.217Z,98987.00
2019-05-03T17:09:46.679Z,98975.00
2019-05-03T17:12:22.918Z,98982.00
2019-05-03T17:14:54.401Z,98984.00
2019-05-03T17:17:25.116Z,98989.00
2019-05-03T17:19:55.142Z,98988.00
2019-05-03T17:22:25.385Z,98992.00
2019-05-03T17:24:56.559Z,98991.00
2019-05-03T17:27:25.704Z,98988.00
2019-05-03T17:29:55.423Z,98986.00
2019-05-03T17:32:24.982Z,98982.00
2019-05-03T17:34:54.922Z,98982.00
2019-05-03T17:37:25.673Z,98984.00
2019-05-03T17:40:02.948Z,98982.00
2019-05-03T17:42:50.134Z,98976.00
2019-05-03T17:45:20.927Z,98976.00
2019-05-03T17:47:50.380Z,98975.00
2019-05-03T17:50:19.547Z,98977.00
2019-05-03T17:52:59.110Z,98972.00
2019-05-03T17:55:30.586Z,98971.00
2019-05-03T17:58:01.421Z,98970.00
2019-05-03T18:00:35.019Z,98972.00
2019-05-03T18:03:04.833Z,98981.00
2019-05-03T18:05:41.695Z,98975.00
2019-05-03T18:08:12.778Z,98981.00
2019-05-03T18:10:43.877Z,98974.00
2019-05-03T18:13:14.344Z,98980.00
2019-05-03T18:15:44.899Z,98979.00
2019-05-03T18:18:15.714Z,98981.00
2019-05-03T18:20:45.085Z,98987.00
2019-05-03T18:23:15.327Z,98976.00
2019-05-03T18:25:44.745Z,98983.00
2019-05-03T18:28:14.846Z,98982.00
2019-05-03T18:30:45.472Z,98977.00
2019-05-03T18:33:15.428Z,98980.00
2019-05-03T18:35:44.555Z,98990.00
2019-05-03T18:38:14.871Z,98974.00
2019-05-03T18:40:44.954Z,98976.00
2019-05-03T18:43:24.830Z,98977.00
2019-05-03T18:46:07.913Z,98986.00
2019-05-03T18:48:37.167Z,98981.00
2019-05-03T18:51:07.564Z,98992.00
2019-05-03T18:53:36.716Z,98998.00
2019-05-03T18:56:06.089Z,98994.00
2019-05-03T18:58:35.282Z,98998.00
2019-05-03T19:01:05.443Z,98993.00
2019-05-03T19:03:34.974Z,98996.00
2019-05-03T19:06:08.827Z,98998.00
2019-05-03T19:08:44.543Z,98994.00
2019-05-03T19:11:21.468Z,98995.00
2019-05-03T19:14:04.751Z,98994.00
2019-05-03T19:16:41.184Z,98991.00
2019-05-03T19:19:11.478Z,99001.00
2019-05-03T19:21:40.952Z,98998.00
2019-05-03T19:24:10.446Z,98992.00
2019-05-03T19:26:40.069Z,98997.00
2019-05-03T19:29:09.476Z,98989.00
2019-05-03T19:31:38.965Z,98992.00
2019-05-03T19:34:08.368Z,98994.00
2019-05-03T19:36:37.579Z,98981.00
2019-05-03T19:39:07.788Z,98977.00
2019-05-03T19:41:36.964Z,98974.00
2019-05-03T19:44:06.480Z,98974.00
2019-05-03T19:46:35.641Z,98971.00
2019-05-03T19:49:05.144Z,98971.00
2019-05-03T19:51:34.391Z,98973.00
2019-05-03T19:54:05.724Z,98967.00
2019-05-03T19:56:34.910Z,98964.00
2019-05-03T19:59:05.761Z,98975.00
2019-05-03T20:01:42.360Z,98968.00
2019-05-03T20:04:15.846Z,98969.00
2019-05-03T20:06:49.865Z,98964.00
2019-05-03T20:09:20.990Z,98966.00
2019-05-03T20:11:50.763Z,98969.00
2019-05-03T20:14:20.167Z,98959.00
2019-05-03T20:16:49.360Z,98959.00
2019-05-03T20:19:21.185Z,98957.00
2019-05-03T20:21:49.896Z,98962.00
2019-05-03T20:24:19.025Z,98955.00
2019-05-03T20:26:48.173Z,98968.00
2019-05-03T20:29:17.354Z,98961.00
2019-05-03T20:31:46.475Z,98960.00
2019-05-03T20:34:15.907Z,98956.00
2019-05-03T20:36:45.442Z,98953.00
2019-05-03T20:39:14.816Z,98957.00
2019-05-03T20:41:45.346Z,98955.00
2019-05-03T20:44:28.239Z,98957.00
2019-05-03T20:47:04.287Z,98954.00
2019-05-03T20:49:34.692Z,98953.00
2019-05-03T20:52:04.052Z,98952.00
2019-05-03T20:54:34.872Z,98954.00
2019-05-03T20:57:05.254Z,98943.00
2019-05-03T20:59:43.030Z,98947.00
2019-05-03T21:02:06.127Z,98943.00
2019-05-03T21:04:35.570Z,98941.00
2019-05-03T21:07:05.005Z,98941.00
2019-05-03T21:09:34.688Z,98938.00
2019-05-03T21:12:04.487Z,98941.00
2019-05-03T21:14:36.249Z,98944.00
2019-05-03T21:17:07.024Z,98933.00
2019-05-03T21:19:37.785Z,98938.00
2019-05-03T21:22:08.603Z,98932.00
2019-05-03T21:24:45.770Z,98932.00
2019-05-03T21:27:15.235Z,98927.00
2019-05-03T21:29:51.469Z,98931.00
2019-05-03T21:32:20.898Z,98925.00
2019-05-03T21:34:50.612Z,98920.00
2019-05-03T21:37:19.941Z,98926.00
2019-05-03T21:39:49.258Z,98928.00
2019-05-03T21:42:18.574Z,98927.00
2019-05-03T21:44:47.922Z,98929.00
2019-05-03T21:47:19.171Z,98925.00
2019-05-03T21:49:50.273Z,98927.00
2019-05-03T21:52:19.356Z,98925.00
2019-05-03T21:54:48.682Z,98925.00
2019-05-03T21:57:18.054Z,98934.00
2019-05-03T21:59:47.404Z,98930.00
2019-05-03T22:02:16.695Z,98933.00
2019-05-03T22:04:46.044Z,98919.00
2019-05-03T22:07:15.382Z,98922.00
2019-05-03T22:09:45.304Z,98920.00
2019-05-03T22:12:14.700Z,98925.00
2019-05-03T22:15:00.697Z,98918.00
2019-05-03T22:17:47.785Z,98919.00
2019-05-03T22:20:21.234Z,98926.00
2019-05-03T22:22:55.471Z,98915.00
2019-05-03T22:25:26.205Z,98918.00
2019-05-03T22:27:55.564Z,98916.00
2019-05-03T22:30:26.799Z,98918.00
2019-05-03T22:32:55.523Z,98905.00
2019-05-03T22:35:25.151Z,98901.00
2019-05-03T22:37:55.041Z,98917.00
2019-05-03T22:40:25.151Z,98907.00
2019-05-03T22:42:54.544Z,98898.00
2019-05-03T22:45:23.885Z,98892.00
2019-05-03T22:47:54.952Z,98893.00
2019-05-03T22:50:25.493Z,98892.00
2019-05-03T22:52:55.044Z,98897.00
2019-05-03T22:55:24.734Z,98888.00
2019-05-03T22:57:54.634Z,98882.00
2019-05-03T23:00:25.235Z,98885.00
2019-05-03T23:02:54.767Z,98883.00
2019-05-03T23:05:23.941Z,98877.00
2019-05-03T23:07:55.252Z,98880.00
2019-05-03T23:10:25.655Z,98875.00
2019-05-03T23:12:54.875Z,98871.00
2019-05-03T23:15:24.384Z,98870.00
2019-05-03T23:17:54.539Z,98865.00
2019-05-03T23:20:31.400Z,98854.00
2019-05-03T23:23:01.095Z,98847.00
2019-05-03T23:25:30.780Z,98847.00
2019-05-03T23:27:59.950Z,98844.00
2019-05-03T23:30:29.318Z,98848.00
2019-05-03T23:32:58.648Z,98844.00
2019-05-03T23:35:28.021Z,98836.00
2019-05-03T23:37:57.355Z,98841.00
2019-05-03T23:40:26.439Z,98842.00
2019-05-03T23:42:55.766Z,98835.00
2019-05-03T23:45:25.610Z,98847.00
2019-05-03T23:47:54.642Z,98834.00
2019-05-03T23:50:24.880Z,98827.00
2019-05-03T23:52:54.599Z,98836.00
2019-05-03T23:55:25.371Z,98828.00
2019-05-03T23:57:55.397Z,98828.00
